Time;durP1;ratioP1;P1;durP2;ratioP2;P2;SDS_P1;SDS_P2;PMS_P1;PMS_P2;Temp;Humidity;BMP_temperature;BMP_pressure;BME280_temperature;BME280_humidity;BME280_pressure;Samples;Min_cycle;Max_cycle;Signal;HPM_P1;HPM_P2
2023/10/16 00:00:40;;;;;;;3.55;2.03;;;;;;;21.93;59.90;102444.25;4994124;28;20037;-55
2023/10/16 00:03:06;;;;;;;4.38;2.00;;;;;;;21.94;59.93;102441.22;4993673;28;20029;-58
2023/10/16 00:05:45;;;;;;;3.08;2.20;;;;;;;21.94;59.77;102446.75;4993320;28;20490;-58
2023/10/16 00:08:16;;;;;;;3.20;2.13;;;;;;;21.94;59.92;102440.41;4994294;28;21888;-57
2023/10/16 00:10:52;;;;;;;3.03;1.88;;;;;;;21.93;59.83;102445.06;4994699;28;20528;-58
2023/10/16 00:13:23;;;;;;;3.22;2.10;;;;;;;21.93;60.05;102445.06;4994235;28;20033;-58
2023/10/16 00:15:51;;;;;;;3.70;2.20;;;;;;;21.92;59.79;102451.69;4996390;28;20788;-58
2023/10/16 00:18:18;;;;;;;4.70;2.05;;;;;;;21.91;60.02;102443.69;4981526;28;20076;-58
2023/10/16 00:20:47;;;;;;;2.90;1.98;;;;;;;21.89;59.96;102446.72;4992971;28;20099;-58
2023/10/16 00:23:12;;;;;;;5.72;2.20;;;;;;;21.89;60.18;102443.13;4998527;28;20029;-58
2023/10/16 00:25:43;;;;;;;3.80;1.73;;;;;;;21.87;59.79;102442.56;4998952;28;20041;-58
2023/10/16 00:28:09;;;;;;;3.35;2.00;;;;;;;21.86;60.01;102441.72;4998388;28;20585;-56
2023/10/16 00:30:36;;;;;;;4.60;2.45;;;;;;;21.84;60.33;102441.16;4998497;28;20033;-58
2023/10/16 00:33:01;;;;;;;3.35;2.10;;;;;;;21.84;60.37;102445.84;4997195;28;20537;-57
2023/10/16 00:35:27;;;;;;;3.35;1.92;;;;;;;21.83;60.17;102444.16;4997081;28;20040;-58
2023/10/16 00:37:52;;;;;;;5.20;2.30;;;;;;;21.82;60.10;102437.00;4996695;28;20037;-58
2023/10/16 00:40:33;;;;;;;3.13;1.80;;;;;;;21.81;59.96;102447.19;4998390;28;21622;-58
2023/10/16 00:43:11;;;;;;;4.85;1.95;;;;;;;21.79;60.53;102433.66;4996804;28;20079;-58
2023/10/16 00:45:46;;;;;;;7.55;2.30;;;;;;;21.79;60.49;102432.84;4999707;28;20111;-58
2023/10/16 00:48:16;;;;;;;3.10;1.90;;;;;;;21.78;60.56;102428.44;4992211;28;20037;-58
2023/10/16 00:50:49;;;;;;;4.47;2.00;;;;;;;21.77;60.09;102427.56;4998736;28;20218;-58
2023/10/16 00:53:22;;;;;;;4.10;2.10;;;;;;;21.78;60.46;102431.19;4999409;28;20026;-58
2023/10/16 00:55:51;;;;;;;2.88;1.85;;;;;;;21.77;60.39;102427.56;4998458;28;20025;-57
2023/10/16 00:58:17;;;;;;;2.72;1.83;;;;;;;21.78;60.54;102420.16;4997697;28;20053;-58
2023/10/16 01:00:46;;;;;;;3.85;2.05;;;;;;;21.77;60.30;102418.47;4998586;28;20124;-58
2023/10/16 01:03:12;;;;;;;2.60;1.85;;;;;;;21.77;60.23;102415.72;4998592;28;21518;-58
2023/10/16 01:05:41;;;;;;;2.85;1.90;;;;;;;21.79;60.52;102419.06;4997168;28;20486;-58
2023/10/16 01:08:08;;;;;;;2.95;1.80;;;;;;;21.79;60.27;102411.59;4996014;28;20366;-57
2023/10/16 01:10:34;;;;;;;3.25;1.77;;;;;;;21.78;60.50;102422.91;4996695;28;20069;-58
2023/10/16 01:13:01;;;;;;;4.03;1.85;;;;;;;21.78;60.45;102404.41;4998749;28;20040;-58
2023/10/16 01:15:27;;;;;;;5.90;2.10;;;;;;;21.78;60.46;102412.69;4995975;28;20412;-58
2023/10/16 01:17:53;;;;;;;2.80;1.88;;;;;;;21.77;60.44;102404.69;4978921;28;20420;-58
2023/10/16 01:20:21;;;;;;;1.88;1.65;;;;;;;21.78;60.14;102409.09;5001469;28;20584;-58
2023/10/16 01:22:47;;;;;;;3.42;1.90;;;;;;;21.75;60.12;102410.47;4996155;28;20133;-58
2023/10/16 01:25:15;;;;;;;6.30;2.08;;;;;;;21.74;60.44;102416.22;4997029;28;20099;-58
2023/10/16 01:27:42;;;;;;;4.90;2.08;;;;;;;21.72;60.31;102410.16;4988232;28;20155;-58
2023/10/16 01:30:08;;;;;;;3.20;1.67;;;;;;;21.70;60.45;102413.16;4994926;28;20033;-58
2023/10/16 01:32:33;;;;;;;2.90;1.80;;;;;;;21.70;60.40;102406.84;4996154;28;20253;-58
2023/10/16 01:35:00;;;;;;;4.50;2.00;;;;;;;21.67;60.57;102397.16;4994229;28;20175;-58
2023/10/16 01:37:29;;;;;;;2.20;1.75;;;;;;;21.65;60.52;102399.34;4996849;28;20092;-57
2023/10/16 01:39:55;;;;;;;3.13;1.90;;;;;;;21.63;60.51;102391.34;4996804;28;20041;-58
2023/10/16 01:42:20;;;;;;;2.65;1.90;;;;;;;21.63;60.35;102387.72;4995034;28;20059;-58
2023/10/16 01:44:48;;;;;;;2.90;1.70;;;;;;;21.61;60.66;102388.00;4996047;28;20123;-58
2023/10/16 01:47:15;;;;;;;3.67;1.70;;;;;;;21.61;60.73;102392.69;4996126;28;20037;-58
2023/10/16 01:49:41;;;;;;;3.45;1.80;;;;;;;21.59;60.57;102389.38;4994298;28;20036;-58
2023/10/16 01:52:10;;;;;;;2.83;1.60;;;;;;;21.59;60.39;102400.41;4991643;28;20667;-58
2023/10/16 01:54:38;;;;;;;2.75;1.75;;;;;;;21.57;60.49;102400.66;4989729;28;20304;-58
2023/10/16 01:57:12;;;;;;;3.50;1.67;;;;;;;21.56;60.53;102392.63;4998419;28;20367;-58
2023/10/16 01:59:39;;;;;;;;;;;;;;;21.54;60.55;102390.13;4995826;28;20040;-58
2023/10/16 02:02:05;;;;;;;2.97;1.90;;;;;;;21.54;60.69;102392.06;4996536;28;20040;-58
2023/10/16 02:04:30;;;;;;;2.80;1.83;;;;;;;21.51;60.43;102384.28;4995453;28;20124;-58
2023/10/16 02:06:56;;;;;;;3.20;1.70;;;;;;;21.49;60.66;102384.56;4995818;28;20784;-57
2023/10/16 02:09:23;;;;;;;3.33;1.77;;;;;;;21.47;60.59;102395.88;4996326;28;20112;-58
2023/10/16 02:11:49;;;;;;;3.03;1.88;;;;;;;21.47;60.80;102387.59;4995770;28;20109;-58
2023/10/16 02:14:14;;;;;;;2.28;1.50;;;;;;;21.47;60.78;102395.03;4996205;28;20041;-58
2023/10/16 02:16:41;;;;;;;3.25;1.67;;;;;;;21.45;61.06;102386.19;4996401;28;21522;-58
2023/10/16 02:19:07;;;;;;;3.20;1.80;;;;;;;21.46;60.99;102390.63;4997077;28;20117;-58
2023/10/16 02:21:33;;;;;;;4.45;1.80;;;;;;;21.45;60.62;102386.19;4997070;28;20482;-58
2023/10/16 02:24:03;;;;;;;2.97;1.90;;;;;;;21.43;61.01;102378.16;4997244;28;20052;-58
2023/10/16 02:26:30;;;;;;;4.75;1.70;;;;;;;21.42;60.50;102382.03;4996994;28;20041;-58
2023/10/16 02:29:00;;;;;;;3.13;1.52;;;;;;;21.41;60.69;102382.28;4995342;28;20046;-58
2023/10/16 02:31:29;;;;;;;2.45;1.60;;;;;;;21.40;60.74;102369.63;4989766;28;20065;-48
2023/10/16 02:33:55;;;;;;;2.25;1.60;;;;;;;21.38;60.86;102377.31;4998272;28;20037;-49
2023/10/16 02:36:21;;;;;;;2.45;1.60;;;;;;;21.37;60.98;102381.16;4997097;28;20022;-48
2023/10/16 02:38:47;;;;;;;1.80;1.35;;;;;;;21.37;61.19;102381.16;4997272;28;20034;-48
2023/10/16 02:41:19;;;;;;;2.90;1.77;;;;;;;21.34;60.93;102377.00;4997114;28;20145;-47
2023/10/16 02:43:46;;;;;;;2.20;1.55;;;;;;;21.32;60.85;102376.44;4997429;28;20037;-49
2023/10/16 02:46:13;;;;;;;2.85;1.80;;;;;;;21.32;60.85;102376.44;4996189;28;20513;-48
2023/10/16 02:48:41;;;;;;;3.33;1.60;;;;;;;21.29;60.72;102372.28;4978761;28;20065;-51
2023/10/16 02:51:07;;;;;;;3.33;1.80;;;;;;;21.29;61.03;102365.94;4996641;28;20422;-49
2023/10/16 02:53:36;;;;;;;2.20;1.50;;;;;;;21.29;60.68;102360.41;4997668;28;20636;-58
2023/10/16 02:56:08;;;;;;;2.67;1.67;;;;;;;21.29;60.98;102357.66;4997051;28;20083;-58
2023/10/16 02:58:54;;;;;;;2.63;1.73;;;;;;;21.28;60.93;102361.50;4996641;28;20033;-58
2023/10/16 03:01:19;;;;;;;2.65;1.63;;;;;;;21.29;60.89;102363.19;4997366;28;20045;-48
2023/10/16 03:03:46;;;;;;;2.30;1.58;;;;;;;21.28;61.03;102362.34;4996576;28;20660;-58
2023/10/16 03:06:13;;;;;;;2.22;1.52;;;;;;;21.28;60.80;102362.34;4996382;28;20295;-58
2023/10/16 03:08:39;;;;;;;6.00;1.55;;;;;;;21.27;61.08;102357.09;4998629;28;20088;-58
2023/10/16 03:11:06;;;;;;;5.35;1.60;;;;;;;21.27;60.78;102359.84;4997702;28;20039;-59
2023/10/16 03:13:38;;;;;;;3.90;1.90;;;;;;;21.26;61.10;102349.91;4996068;28;20144;-56
2023/10/16 03:16:16;;;;;;;3.15;1.60;;;;;;;21.24;61.11;102346.56;4996025;28;20038;-58
2023/10/16 03:18:48;;;;;;;3.55;1.60;;;;;;;21.22;60.85;102352.34;4996635;28;20152;-58
2023/10/16 03:23:44;;;;;;;2.55;1.55;;;;;;;21.21;60.81;102358.13;4996344;28;20560;-48
2023/10/16 03:26:25;;;;;;;2.05;1.50;;;;;;;21.18;61.10;102348.47;4996336;28;20569;-47
2023/10/16 03:29:00;;;;;;;3.03;1.70;;;;;;;21.19;61.11;102350.13;4988798;28;20446;-48
2023/10/16 03:31:26;;;;;;;2.85;1.52;;;;;;;21.19;61.20;102355.66;4993189;28;20041;-58
2023/10/16 03:33:56;;;;;;;4.15;1.80;;;;;;;21.19;61.30;102354.81;4997352;28;20068;-58
2023/10/16 03:36:22;;;;;;;2.50;1.48;;;;;;;21.20;60.92;102359.22;4996309;28;20029;-48
2023/10/16 03:38:50;;;;;;;2.22;1.40;;;;;;;21.19;61.22;102347.38;4996640;28;20061;-58
2023/10/16 03:41:28;;;;;;;2.22;1.50;;;;;;;21.16;61.38;102348.75;4995881;28;20624;-58
2023/10/16 03:43:58;;;;;;;2.22;1.50;;;;;;;21.17;60.89;102346.81;4995980;28;22138;-58
2023/10/16 03:46:27;;;;;;;2.75;1.40;;;;;;;21.17;61.41;102361.41;4995487;28;20044;-48
2023/10/16 03:48:53;;;;;;;2.83;1.48;;;;;;;21.15;61.21;102355.34;4993887;28;20185;-47
2023/10/16 03:51:18;;;;;;;2.88;1.35;;;;;;;21.13;61.28;102349.25;4995361;28;20132;-48
2023/10/16 03:53:44;;;;;;;1.83;1.40;;;;;;;21.14;61.16;102355.59;4997108;28;20034;-51
2023/10/16 03:56:13;;;;;;;2.67;1.60;;;;;;;21.13;61.13;102351.19;4996620;28;20529;-50
2023/10/16 03:58:44;;;;;;;2.15;1.30;;;;;;;21.14;61.29;102350.91;4995766;28;20041;-50
2023/10/16 04:01:10;;;;;;;1.73;1.40;;;;;;;21.12;61.48;102344.81;4996445;28;20119;-47
2023/10/16 04:03:46;;;;;;;2.70;1.77;;;;;;;21.12;61.02;102349.53;4996973;28;20052;-48
2023/10/16 04:06:21;;;;;;;1.98;1.50;;;;;;;21.11;61.41;102350.59;4995052;28;20041;-47
2023/10/16 04:08:47;;;;;;;3.53;1.50;;;;;;;21.10;61.49;102344.28;4994574;28;20056;-47
2023/10/16 04:11:14;;;;;;;2.58;1.45;;;;;;;21.10;61.29;102343.44;4995126;28;20408;-48
2023/10/16 04:13:47;;;;;;;2.03;1.25;;;;;;;21.10;61.45;102343.44;4994371;28;20397;-49
2023/10/16 04:16:25;;;;;;;1.65;1.40;;;;;;;21.08;61.62;102337.34;4994329;28;20036;-48
2023/10/16 04:18:50;;;;;;;1.85;1.30;;;;;;;21.07;61.48;102339.28;4994342;28;20852;-50
2023/10/16 04:53:08;;;;;;;6.20;1.20;;;;;;;21.00;61.76;102322.13;4993781;28;20042;-50
2023/10/16 05:22:09;;;;;;;1.70;1.10;;;;;;;20.96;61.63;102309.97;4995418;28;20045;-48
2023/10/16 06:14:15;;;;;;;1.55;1.40;;;;;;;21.58;61.68;102311.31;4996328;28;20544;-49
2023/10/16 06:16:41;;;;;;;3.08;1.30;;;;;;;21.72;61.20;102306.13;4996148;28;20137;-48
2023/10/16 06:19:14;;;;;;;1.73;1.10;;;;;;;21.86;61.44;102305.66;4995187;28;20046;-50
2023/10/16 06:22:06;;;;;;;1.60;1.15;;;;;;;22.02;61.30;102310.13;4997321;28;20204;-50
2023/10/16 06:24:44;;;;;;;2.47;1.20;;;;;;;22.13;60.66;102316.53;4997007;28;20099;-51
2023/10/16 06:27:11;;;;;;;1.98;1.10;;;;;;;22.14;60.59;102320.16;4994677;28;20064;-51
2023/10/16 06:29:49;;;;;;;2.08;1.10;;;;;;;22.15;60.95;102316.28;4979271;28;20065;-49
2023/10/16 06:32:18;;;;;;;1.98;1.30;;;;;;;22.13;60.97;102313.78;4996719;28;20517;-50
2023/10/16 06:34:48;;;;;;;2.47;1.00;;;;;;;22.11;61.07;102311.28;4995249;28;20033;-51
2023/10/16 06:37:21;;;;;;;1.65;1.17;;;;;;;22.09;60.90;102321.78;4995575;28;20041;-58
2023/10/16 06:39:54;;;;;;;1.23;1.00;;;;;;;22.08;61.21;102322.03;4997822;28;20056;-59
2023/10/16 06:42:23;;;;;;;1.65;1.00;;;;;;;22.07;61.13;102328.66;4995895;28;20154;-59
2023/10/16 06:44:50;;;;;;;1.42;1.20;;;;;;;22.06;61.12;102324.25;4994454;28;21613;-58
2023/10/16 06:47:17;;;;;;;2.58;1.30;;;;;;;22.06;61.40;102327.84;4995773;28;20585;-59
2023/10/16 06:49:42;;;;;;;2.03;1.10;;;;;;;22.05;61.45;102328.13;4995427;28;20034;-59
2023/10/16 06:52:17;;;;;;;1.55;1.10;;;;;;;22.03;61.23;102331.13;4993315;28;20603;-59
2023/10/16 06:54:44;;;;;;;1.77;1.17;;;;;;;22.01;61.43;102336.09;4994796;28;20045;-59
2023/10/16 06:57:13;;;;;;;1.52;1.00;;;;;;;22.02;61.51;102336.94;4996879;28;20552;-59
2023/10/16 06:59:46;;;;;;;1.55;1.17;;;;;;;21.99;61.31;102332.78;4996166;28;20034;-60
2023/10/16 07:02:21;;;;;;;3.08;1.20;;;;;;;21.99;61.44;102335.53;4998411;28;20581;-59
2023/10/16 07:04:47;;;;;;;2.85;1.45;;;;;;;21.97;61.69;102329.44;4997440;28;20476;-59
2023/10/16 07:07:17;;;;;;;6.05;1.27;;;;;;;21.96;61.42;102336.91;4996984;28;20034;-59
2023/10/16 07:09:49;;;;;;;4.13;1.42;;;;;;;21.93;61.40;102331.09;4997461;28;20045;-58
2023/10/16 07:12:18;;;;;;;2.63;1.50;;;;;;;21.93;61.98;102336.59;4998084;28;20034;-59
2023/10/16 07:14:57;;;;;;;1.48;1.20;;;;;;;21.91;61.93;102338.78;4997959;28;20036;-59
2023/10/16 07:17:28;;;;;;;2.97;1.63;;;;;;;21.89;61.85;102339.06;4994160;28;20132;-59
2023/10/16 07:19:58;;;;;;;3.80;1.50;;;;;;;21.86;61.87;102334.06;4995607;28;20140;-59
2023/10/16 07:22:31;;;;;;;2.60;1.33;;;;;;;21.85;62.20;102340.72;4997074;28;20401;-59
2023/10/16 07:27:46;;;;;;;5.40;1.67;;;;;;;21.83;61.99;102345.66;4952324;28;20489;-59
2023/10/16 07:30:21;;;;;;;3.13;1.40;;;;;;;21.80;61.92;102346.19;4995211;28;20041;-59
2023/10/16 07:32:47;;;;;;;8.93;2.40;;;;;;;21.80;61.99;102333.22;4988857;28;20164;-59
2023/10/16 07:35:17;;;;;;;2.80;1.42;;;;;;;21.80;62.08;102329.63;4995652;28;20044;-59
2023/10/16 07:37:42;;;;;;;2.88;1.40;;;;;;;21.80;62.11;102329.63;4979067;28;20045;-59
2023/10/16 07:40:08;;;;;;;4.28;1.50;;;;;;;21.79;61.92;102342.59;4996033;28;20067;-52
2023/10/16 07:42:35;;;;;;;2.03;1.30;;;;;;;21.80;61.91;102343.41;4995866;28;20092;-52
2023/10/16 07:45:01;;;;;;;1.63;1.20;;;;;;;21.80;62.03;102343.41;4994983;28;20037;-51
2023/10/16 07:47:26;;;;;;;6.70;1.60;;;;;;;21.83;62.08;102333.78;4997328;28;20068;-59
2023/10/16 07:49:52;;;;;;;3.10;1.40;;;;;;;21.86;62.13;102345.13;4995008;28;20037;-59
2023/10/16 07:52:18;;;;;;;3.83;1.40;;;;;;;21.89;61.85;102344.59;4989502;28;20410;-59
2023/10/16 07:54:43;;;;;;;3.22;1.40;;;;;;;21.92;61.72;102346.81;4988656;28;20592;-59
2023/10/16 07:57:09;;;;;;;3.42;1.38;;;;;;;21.94;62.02;102352.06;4994940;28;20030;-59
2023/10/16 07:59:36;;;;;;;2.30;1.58;;;;;;;21.95;61.67;102343.53;4994567;28;20394;-51
2023/10/16 08:02:08;;;;;;;3.50;1.30;;;;;;;21.96;62.06;102338.81;4994533;28;20430;-52
2023/10/16 08:04:36;;;;;;;3.03;1.50;;;;;;;21.96;62.04;102345.19;4996258;28;20327;-52
2023/10/16 08:07:04;;;;;;;2.03;1.27;;;;;;;21.95;61.93;102351.81;4994301;28;20359;-50
2023/10/16 08:14:44;;;;;;;2.57;1.23;;;;;;;21.92;62.17;102348.75;4995603;28;20049;-49
2023/10/16 08:17:17;;;;;;;3.67;1.45;;;;;;;21.90;62.15;102346.25;4995304;28;21557;-50
2023/10/16 08:19:44;;;;;;;3.78;1.23;;;;;;;21.89;61.88;102347.34;4995682;28;20046;-51
2023/10/16 08:22:13;;;;;;;2.03;1.50;;;;;;;21.89;61.92;102344.59;4993273;28;20042;-50
2023/10/16 08:24:43;;;;;;;3.03;1.45;;;;;;;21.91;62.12;102345.16;4993918;28;20037;-51
2023/10/16 08:27:19;;;;;;;3.05;1.50;;;;;;;21.91;62.04;102345.16;4988888;28;20139;-51
2023/10/16 08:29:54;;;;;;;2.08;1.30;;;;;;;21.92;62.38;102340.47;4987842;28;20114;-59
2023/10/16 08:35:10;;;;;;;6.05;1.33;;;;;;;21.93;62.46;102337.44;4992777;28;20348;-59
2023/10/16 08:37:40;;;;;;;3.78;1.55;;;;;;;21.93;62.20;102339.38;4996668;28;20734;-58
2023/10/16 08:40:18;;;;;;;5.40;1.45;;;;;;;21.93;62.63;102345.72;5000449;28;20040;-51
2023/10/16 08:42:50;;;;;;;3.60;1.42;;;;;;;21.93;62.46;102336.59;4991330;28;20128;-58
2023/10/16 08:45:24;;;;;;;2.95;1.30;;;;;;;21.93;62.49;102334.66;4997619;28;20030;-59
2023/10/16 08:47:50;;;;;;;1.75;1.30;;;;;;;21.94;62.26;102336.34;4994014;28;20435;-48
2023/10/16 08:50:17;;;;;;;3.03;1.50;;;;;;;21.97;62.83;102334.97;4995521;28;20037;-49
2023/10/16 08:52:58;;;;;;;6.05;1.70;;;;;;;22.02;63.17;102342.44;4997045;28;20619;-51
2023/10/16 08:55:26;;;;;;;4.95;1.65;;;;;;;22.04;63.36;102341.06;4998486;28;20034;-52
2023/10/16 08:57:51;;;;;;;3.85;1.50;;;;;;;22.02;63.37;102340.50;4981033;28;20038;-59
2023/10/16 09:00:24;;;;;;;5.10;1.98;;;;;;;22.03;62.97;102349.63;4999280;28;20091;-60
2023/10/16 09:02:51;;;;;;;5.10;1.83;;;;;;;22.03;62.94;102346.88;4998439;28;20490;-49
2023/10/16 09:05:16;;;;;;;5.50;1.88;;;;;;;22.05;62.87;102344.69;4999108;28;20991;-51
2023/10/16 09:07:42;;;;;;;5.07;2.00;;;;;;;22.06;62.74;102347.16;4998430;28;20076;-59
2023/10/16 09:10:10;;;;;;;2.85;1.80;;;;;;;22.07;63.09;102351.59;4998771;28;20044;-59
2023/10/16 09:12:44;;;;;;;5.90;1.50;;;;;;;22.07;62.92;102348.84;4998329;28;20079;-59
2023/10/16 09:15:12;;;;;;;;;;;;;;;22.09;62.98;102349.38;4997070;28;20099;-59
2023/10/16 09:17:38;;;;;;;3.95;1.40;;;;;;;22.11;62.80;102352.72;4996900;28;20366;-59
2023/10/16 09:20:14;;;;;;;5.05;1.50;;;;;;;22.11;63.20;102346.38;4999277;28;20481;-58
2023/10/16 09:22:48;;;;;;;4.78;1.80;;;;;;;22.11;63.32;102349.13;4996886;28;20041;-58
2023/10/16 09:25:15;;;;;;;;;;;;;;;22.12;63.20;102346.09;4997443;28;20127;-59
2023/10/16 09:27:49;;;;;;;4.18;1.50;;;;;;;22.15;63.18;102343.91;4997787;28;19960;-58
2023/10/16 09:30:15;;;;;;;5.73;1.60;;;;;;;22.16;62.95;102348.31;4998599;28;20128;-58
2023/10/16 09:32:41;;;;;;;3.22;1.70;;;;;;;22.15;63.29;102350.25;4995053;28;20850;-58
2023/10/16 09:35:12;;;;;;;3.55;1.70;;;;;;;22.15;63.21;102339.19;4990388;28;20033;-50
2023/10/16 09:37:38;;;;;;;2.75;1.38;;;;;;;22.15;63.40;102344.72;4932667;28;20464;-51
2023/10/16 09:40:35;;;;;;;4.88;1.70;;;;;;;22.16;63.33;102334.50;4964260;28;20045;-50
2023/10/16 09:43:10;;;;;;;3.55;1.60;;;;;;;22.16;62.99;102337.25;4994268;28;20839;-58
2023/10/16 09:45:38;;;;;;;3.70;1.60;;;;;;;22.15;63.38;102336.44;4985414;28;20625;-58
2023/10/16 09:48:19;;;;;;;5.43;2.10;;;;;;;22.16;63.04;102334.50;4989271;28;20043;-58
2023/10/16 09:50:45;;;;;;;3.10;1.58;;;;;;;22.17;63.35;102325.13;4991485;28;20817;-58
2023/10/16 09:53:11;;;;;;;7.72;1.85;;;;;;;22.21;63.33;102337.31;4994249;28;20060;-58
2023/10/16 09:55:44;;;;;;;4.50;1.55;;;;;;;22.21;63.74;102331.78;4988425;28;20471;-58
2023/10/16 09:58:11;;;;;;;3.28;1.52;;;;;;;22.23;63.71;102322.13;4993687;28;20092;-44
2023/10/16 10:00:44;;;;;;;5.35;1.80;;;;;;;22.27;64.01;102325.19;4986484;28;20065;-53
2023/10/16 10:03:13;;;;;;;9.93;1.67;;;;;;;22.32;63.88;102327.09;4986817;28;20042;-54
2023/10/16 10:08:38;;;;;;;9.60;2.20;;;;;;;22.44;64.10;102325.00;4989414;28;20134;-57
2023/10/16 10:14:10;;;;;;;6.72;2.13;;;;;;;22.52;64.14;102323.63;4991402;28;20723;-46
2023/10/16 10:16:45;;;;;;;6.33;1.60;;;;;;;22.54;64.40;102333.28;4989646;28;20153;-46
2023/10/16 10:19:39;;;;;;;4.38;1.35;;;;;;;22.54;64.01;102330.53;4988139;28;20044;-46
2023/10/16 10:22:16;;;;;;;3.05;1.55;;;;;;;22.57;64.46;102324.47;4978452;28;20049;-47
2023/10/16 10:25:07;;;;;;;2.60;1.40;;;;;;;22.59;64.56;102330.53;4990069;28;20470;-46
2023/10/16 10:27:32;;;;;;;6.45;2.13;;;;;;;22.61;64.41;102330.25;4988542;28;20040;-48
2023/10/16 10:30:05;;;;;;;3.58;1.60;;;;;;;22.63;64.64;102330.00;4989474;28;20041;-51
2023/10/16 10:32:32;;;;;;;3.40;1.50;;;;;;;22.65;64.38;102328.63;4980550;28;20069;-49
2023/10/16 10:35:22;;;;;;;4.80;1.77;;;;;;;22.68;64.33;102328.06;4989007;28;20451;-50
2023/10/16 10:37:48;;;;;;;2.83;1.40;;;;;;;22.72;64.39;102331.97;4987733;28;20593;-48
2023/10/16 10:40:24;;;;;;;3.53;1.60;;;;;;;22.76;64.72;102337.78;4988966;28;20025;-56
2023/10/16 10:42:55;;;;;;;2.83;1.50;;;;;;;22.80;64.29;102327.81;4988306;28;20041;-49
2023/10/16 10:45:39;;;;;;;9.07;1.60;;;;;;;22.82;64.28;102328.38;4989169;28;20932;-56
2023/10/16 10:48:09;;;;;;;2.10;1.30;;;;;;;22.86;64.37;102336.97;4986221;28;20044;-58
2023/10/16 10:50:39;;;;;;;3.13;1.30;;;;;;;22.86;64.50;102328.66;4971479;28;20033;-62
2023/10/16 10:53:15;;;;;;;4.70;2.00;;;;;;;22.89;64.74;102328.09;4987348;28;20108;-46
2023/10/16 10:55:55;;;;;;;6.68;2.03;;;;;;;22.92;65.03;102322.03;4987323;28;21063;-43
2023/10/16 10:58:24;;;;;;;8.30;1.85;;;;;;;22.96;65.35;102325.91;4988137;28;20040;-46
2023/10/16 11:00:50;;;;;;;4.28;1.80;;;;;;;22.99;64.93;102316.22;4987086;28;20036;-46
2023/10/16 11:03:44;;;;;;;6.38;1.90;;;;;;;23.02;65.18;102324.81;4989624;28;20385;-47
2023/10/16 11:06:20;;;;;;;3.20;1.63;;;;;;;23.04;65.01;102314.31;4990577;28;20049;-56
2023/10/16 11:08:50;;;;;;;10.32;2.72;;;;;;;23.07;64.84;102315.69;4973596;28;20371;-59
2023/10/16 11:11:16;;;;;;;2.97;1.50;;;;;;;23.08;64.64;102317.34;4990229;28;20037;-58
2023/10/16 11:13:46;;;;;;;6.38;1.77;;;;;;;23.07;64.89;102308.22;4988522;28;20442;-56
2023/10/16 11:16:12;;;;;;;4.57;1.92;;;;;;;23.11;65.01;102313.19;4986633;28;20037;-52
2023/10/16 11:18:37;;;;;;;38.53;2.95;;;;;;;23.14;65.04;102313.47;4969156;28;20049;-58
2023/10/16 11:21:07;;;;;;;8.30;1.85;;;;;;;23.17;64.83;102312.94;4988110;28;20193;-47
2023/10/16 11:23:38;;;;;;;4.50;1.77;;;;;;;23.21;64.61;102305.78;4988003;28;20503;-52
2023/10/16 11:26:05;;;;;;;5.07;1.92;;;;;;;23.26;64.47;102302.16;4988606;28;20813;-56
2023/10/16 11:28:36;;;;;;;21.48;3.00;;;;;;;23.32;64.86;102302.97;4991526;28;20047;-56
2023/10/16 11:31:04;;;;;;;79.95;7.00;;;;;;;23.35;66.19;102305.19;4992998;28;20045;-55
2023/10/16 11:33:35;;;;;;;45.88;7.35;;;;;;;23.36;66.86;102296.63;4985288;28;20037;-56
2023/10/16 11:36:06;;;;;;;54.25;7.43;;;;;;;23.37;67.53;102289.13;4989000;28;20042;-57
2023/10/16 11:38:34;;;;;;;41.08;6.47;;;;;;;23.37;68.05;102287.22;4987837;28;20038;-57
2023/10/16 11:41:05;;;;;;;34.13;7.60;;;;;;;23.38;68.68;102288.88;4973366;28;20037;-57
2023/10/16 11:43:38;;;;;;;20.35;5.18;;;;;;;23.42;68.97;102291.06;4991220;28;20105;-56
2023/10/16 11:46:28;;;;;;;20.40;5.23;;;;;;;23.43;69.09;102285.25;4989734;28;20077;-57
2023/10/16 11:48:56;;;;;;;25.17;5.03;;;;;;;23.45;69.45;102283.03;4988317;28;20303;-56
2023/10/16 11:51:23;;;;;;;14.43;4.50;;;;;;;23.47;69.90;102280.00;4988244;28;20631;-57
2023/10/16 11:53:49;;;;;;;13.75;4.68;;;;;;;23.49;70.09;102270.31;4988736;28;20064;-58
2023/10/16 11:56:18;;;;;;;11.38;4.13;;;;;;;23.51;70.46;102267.28;4988512;28;20675;-56
2023/10/16 11:58:44;;;;;;;17.90;4.15;;;;;;;23.53;70.27;102270.56;4989028;28;20044;-56
2023/10/16 12:01:09;;;;;;;10.40;4.45;;;;;;;23.54;70.27;102270.31;4988706;28;20617;-56
2023/10/16 12:03:39;;;;;;;8.35;2.90;;;;;;;23.56;70.07;102270.03;4987432;28;20030;-56
2023/10/16 12:06:14;;;;;;;7.30;3.65;;;;;;;23.56;70.12;102264.50;4987865;28;20600;-56
2023/10/16 12:08:41;;;;;;;9.18;2.88;;;;;;;23.58;69.92;102256.75;4987944;28;20038;-56
2023/10/16 12:11:07;;;;;;;10.43;3.40;;;;;;;23.59;70.03;102255.59;4988932;28;20040;-56
2023/10/16 12:13:33;;;;;;;7.38;3.53;;;;;;;23.59;70.32;102250.06;4992140;28;20117;-56
2023/10/16 12:15:59;;;;;;;7.63;3.45;;;;;;;23.60;69.97;102254.50;4992046;28;20017;-47
2023/10/16 12:18:28;;;;;;;7.30;2.97;;;;;;;23.60;70.12;102239.84;4992334;28;20260;-56
2023/10/16 12:20:54;;;;;;;7.75;2.65;;;;;;;23.61;69.95;102245.09;4993077;28;20646;-56
2023/10/16 12:23:23;;;;;;;5.88;2.88;;;;;;;23.61;70.09;102244.28;4993474;28;20080;-56
2023/10/16 12:25:49;;;;;;;8.32;3.15;;;;;;;23.61;70.15;102238.75;4991886;28;20029;-53
2023/10/16 12:28:15;;;;;;;6.80;2.63;;;;;;;23.62;69.86;102249.53;4992478;28;20038;-55
2023/10/16 12:30:40;;;;;;;8.60;2.63;;;;;;;23.64;69.90;102241.78;4991588;28;20107;-57
2023/10/16 12:33:06;;;;;;;6.45;2.95;;;;;;;23.63;69.89;102242.88;4992387;28;20099;-56
2023/10/16 12:35:34;;;;;;;5.65;2.40;;;;;;;23.61;69.68;102233.22;4991821;28;20041;-56
2023/10/16 12:38:04;;;;;;;9.57;2.40;;;;;;;23.62;69.09;102232.09;4993207;28;20029;-56
2023/10/16 12:40:37;;;;;;;5.30;2.28;;;;;;;23.62;68.78;102235.69;4991992;28;21290;-47
2023/10/16 12:43:05;;;;;;;6.60;2.20;;;;;;;23.63;68.82;102226.28;4991993;28;20037;-46
2023/10/16 12:45:32;;;;;;;8.98;2.40;;;;;;;23.63;68.88;102217.97;4991340;28;20411;-58
2023/10/16 12:47:58;;;;;;;8.30;2.53;;;;;;;23.62;68.47;102224.63;4987539;28;20066;-57
2023/10/16 12:50:24;;;;;;;6.70;2.22;;;;;;;23.63;68.83;102219.91;4991664;28;20037;-57
2023/10/16 12:52:55;;;;;;;5.15;2.22;;;;;;;23.62;68.52;102223.81;4990561;28;20037;-57
2023/10/16 12:55:22;;;;;;;8.20;2.47;;;;;;;23.61;68.30;102222.16;4991899;28;20033;-57
2023/10/16 12:57:49;;;;;;;7.72;2.95;;;;;;;23.60;68.48;102223.25;4991750;28;20425;-56
2023/10/16 13:00:18;;;;;;;5.20;2.30;;;;;;;23.58;68.15;102231.00;4991481;28;20501;-59
2023/10/16 13:02:48;;;;;;;5.55;2.80;;;;;;;23.56;68.44;102218.25;4989512;28;20029;-49
2023/10/16 13:05:30;;;;;;;6.70;2.38;;;;;;;23.55;68.07;102224.09;4990373;28;20049;-56
2023/10/16 13:07:56;;;;;;;5.55;2.70;;;;;;;23.53;67.97;102216.06;4990015;28;20390;-55
2023/10/16 13:10:26;;;;;;;5.85;2.90;;;;;;;23.51;68.32;102223.81;4990413;28;20041;-56
2023/10/16 13:12:51;;;;;;;4.68;2.95;;;;;;;23.50;68.21;102222.16;4988961;28;20588;-57
2023/10/16 13:15:24;;;;;;;7.35;3.33;;;;;;;23.48;67.95;102216.09;4973330;28;20033;-54
2023/10/16 13:17:53;;;;;;;6.05;3.00;;;;;;;23.46;68.05;102218.31;4988258;28;20033;-56
2023/10/16 13:20:18;;;;;;;9.63;3.00;;;;;;;23.44;68.10;102222.47;4990618;28;20942;-56
2023/10/16 13:22:49;;;;;;;6.45;3.30;;;;;;;23.42;68.20;102220.00;4989251;28;20047;-57
2023/10/16 13:25:16;;;;;;;7.68;3.42;;;;;;;23.39;68.03;102223.31;4988995;28;20512;-47
2023/10/16 13:27:43;;;;;;;5.50;3.20;;;;;;;23.37;68.17;102222.75;4990890;28;21663;-48
2023/10/16 13:30:11;;;;;;;4.88;3.40;;;;;;;23.35;68.16;102213.91;4989517;28;20087;-46
2023/10/16 13:32:41;;;;;;;7.63;3.55;;;;;;;23.32;68.07;102218.06;4990427;28;20561;-46
2023/10/16 13:35:12;;;;;;;7.75;3.88;;;;;;;23.31;67.80;102223.88;4988985;28;21139;-46
2023/10/16 13:37:42;;;;;;;11.40;4.53;;;;;;;23.30;68.13;102222.22;4991052;28;20033;-46
2023/10/16 13:40:21;;;;;;;23.27;6.85;;;;;;;23.29;67.69;102220.56;4988450;28;20048;-57
2023/10/16 13:42:51;;;;;;;22.30;7.50;;;;;;;23.27;67.71;102222.78;4989384;28;20382;-57